createdAt,value
2017-11-15T00:00:58.044Z,1007.69
2017-11-15T00:01:58.069Z,1007.67
2017-11-15T00:02:58.093Z,1007.69
2017-11-15T00:03:58.118Z,1007.69
2017-11-15T00:04:58.144Z,1007.69
2017-11-15T00:05:58.169Z,1007.71
2017-11-15T00:06:58.195Z,1007.68
2017-11-15T00:07:58.217Z,1007.70
2017-11-15T00:08:58.245Z,1007.67
2017-11-15T00:09:58.268Z,1007.66
2017-11-15T00:10:58.301Z,1007.67
2017-11-15T00:11:58.319Z,1007.69
2017-11-15T00:12:58.344Z,1007.66
2017-11-15T00:13:58.369Z,1007.67
2017-11-15T00:14:58.394Z,1007.69
2017-11-15T00:15:58.419Z,1007.69
2017-11-15T00:16:58.445Z,1007.75
2017-11-15T00:17:58.470Z,1007.77
2017-11-15T00:18:58.499Z,1007.78
2017-11-15T00:19:58.520Z,1007.78
2017-11-15T00:20:58.544Z,1007.70
2017-11-15T00:21:58.570Z,1007.72
2017-11-15T00:22:58.594Z,1007.66
2017-11-15T00:23:58.620Z,1007.63
2017-11-15T00:24:58.645Z,1007.63
2017-11-15T00:25:58.670Z,1007.63
2017-11-15T00:26:58.695Z,1007.63
2017-11-15T00:27:58.718Z,1007.64
2017-11-15T00:28:58.745Z,1007.61
2017-11-15T00:29:58.769Z,1007.61
2017-11-15T00:30:58.795Z,1007.60
2017-11-15T00:31:58.820Z,1007.58
2017-11-15T00:32:58.851Z,1007.57
2017-11-15T00:33:58.874Z,1007.56
2017-11-15T00:34:58.894Z,1007.59
2017-11-15T00:35:58.920Z,1007.57
2017-11-15T00:36:58.945Z,1007.54
2017-11-15T00:37:58.970Z,1007.55
2017-11-15T00:38:58.995Z,1007.56
2017-11-15T00:39:59.020Z,1007.52
2017-11-15T00:40:59.046Z,1007.54
2017-11-15T00:41:59.071Z,1007.52
2017-11-15T00:42:59.094Z,1007.50
2017-11-15T00:43:59.120Z,1007.48
2017-11-15T00:44:59.146Z,1007.52
2017-11-15T00:45:59.171Z,1007.53
2017-11-15T00:46:59.194Z,1007.51
2017-11-15T00:47:59.220Z,1007.52
2017-11-15T00:48:59.245Z,1007.53
2017-11-15T00:49:59.270Z,1007.52
2017-11-15T00:50:59.295Z,1007.50
2017-11-15T00:51:59.319Z,1007.49
2017-11-15T00:52:59.346Z,1007.50
2017-11-15T00:53:59.369Z,1007.52
2017-11-15T00:54:59.399Z,1007.50
2017-11-15T00:55:59.420Z,1007.47
2017-11-15T00:56:59.446Z,1007.43
2017-11-15T00:57:59.470Z,1007.46
2017-11-15T00:58:59.493Z,1007.47
2017-11-15T00:59:59.519Z,1007.48
2017-11-15T01:00:59.545Z,1007.40
2017-11-15T01:01:59.570Z,1007.40
2017-11-15T01:02:59.594Z,1007.43
2017-11-15T01:03:59.621Z,1007.37
2017-11-15T01:04:59.645Z,1007.40
2017-11-15T01:05:59.670Z,1007.38
2017-11-15T01:06:59.695Z,1007.39
2017-11-15T01:07:59.723Z,1007.39
2017-11-15T01:08:59.745Z,1007.42
2017-11-15T01:09:59.770Z,1007.42
2017-11-15T01:10:59.795Z,1007.49
2017-11-15T01:11:59.820Z,1007.42
2017-11-15T01:12:59.845Z,1007.44
2017-11-15T01:13:59.870Z,1007.45
2017-11-15T01:14:59.904Z,1007.43
2017-11-15T01:15:59.919Z,1007.45
2017-11-15T01:16:59.945Z,1007.41
2017-11-15T01:17:59.970Z,1007.41
2017-11-15T01:18:59.994Z,1007.40
2017-11-15T01:20:00.022Z,1007.39
2017-11-15T01:21:00.043Z,1007.44
2017-11-15T01:22:00.070Z,1007.44
2017-11-15T01:23:00.094Z,1007.45
2017-11-15T01:24:00.124Z,1007.45
2017-11-15T01:25:00.145Z,1007.40
2017-11-15T01:26:00.169Z,1007.42
2017-11-15T01:27:00.193Z,1007.44
2017-11-15T01:28:00.219Z,1007.38
2017-11-15T01:29:00.248Z,1007.40
2017-11-15T01:30:00.268Z,1007.34
2017-11-15T01:31:00.292Z,1007.35
2017-11-15T01:32:00.368Z,1007.34
2017-11-15T01:33:00.353Z,1007.34
2017-11-15T01:34:00.368Z,1007.33
2017-11-15T01:35:00.392Z,1007.39
2017-11-15T01:36:00.417Z,1007.40
2017-11-15T01:37:00.442Z,1007.36
2017-11-15T01:38:00.468Z,1007.38
2017-11-15T01:39:00.490Z,1007.41
2017-11-15T01:40:00.516Z,1007.43
2017-11-15T01:41:00.540Z,1007.36
2017-11-15T01:42:00.566Z,1007.39
2017-11-15T01:43:00.590Z,1007.31
2017-11-15T01:44:00.616Z,1007.34
2017-11-15T01:45:00.641Z,1007.37
2017-11-15T01:46:00.665Z,1007.37
2017-11-15T01:47:00.688Z,1007.35
2017-11-15T01:48:00.715Z,1007.31
2017-11-15T01:49:00.740Z,1007.37
2017-11-15T01:50:00.767Z,1007.38
2017-11-15T01:51:00.789Z,1007.40
2017-11-15T01:52:00.814Z,1007.37
2017-11-15T01:53:00.838Z,1007.39
2017-11-15T01:54:00.873Z,1007.34
2017-11-15T01:55:00.888Z,1007.35
2017-11-15T01:56:00.914Z,1007.37
2017-11-15T01:57:00.946Z,1007.33
2017-11-15T01:58:00.963Z,1007.33
2017-11-15T01:59:00.987Z,1007.30
2017-11-15T02:00:01.012Z,1007.31
2017-11-15T02:01:01.037Z,1007.26
2017-11-15T02:02:01.061Z,1007.32
2017-11-15T02:03:01.086Z,1007.30
2017-11-15T02:04:01.111Z,1007.37
2017-11-15T02:05:01.140Z,1007.30
2017-11-15T02:06:01.161Z,1007.34
2017-11-15T02:07:01.184Z,1007.37
2017-11-15T02:08:01.209Z,1007.34
2017-11-15T02:09:01.235Z,1007.35
2017-11-15T02:10:01.261Z,1007.36
2017-11-15T02:11:01.283Z,1007.33
2017-11-15T02:12:01.308Z,1007.33
2017-11-15T02:13:01.383Z,1007.37
2017-11-15T02:14:01.366Z,1007.34
2017-11-15T02:15:01.381Z,1007.34
2017-11-15T02:16:01.407Z,1007.33
2017-11-15T02:17:01.431Z,1007.33
2017-11-15T02:18:01.456Z,1007.33
2017-11-15T02:19:01.481Z,1007.30
2017-11-15T02:20:01.504Z,1007.35
2017-11-15T02:21:01.529Z,1007.32
2017-11-15T02:22:01.553Z,1007.32
2017-11-15T02:23:01.579Z,1007.28
2017-11-15T02:24:01.604Z,1007.27
2017-11-15T02:25:01.628Z,1007.19
2017-11-15T02:26:01.653Z,1007.18
2017-11-15T02:27:01.677Z,1007.22
2017-11-15T02:28:01.702Z,1007.20
2017-11-15T02:29:01.725Z,1007.17
2017-11-15T02:30:01.759Z,1007.16
2017-11-15T02:31:01.776Z,1007.15
2017-11-15T02:32:01.801Z,1007.12
2017-11-15T02:33:01.825Z,1007.12
2017-11-15T02:34:01.901Z,1007.14
2017-11-15T02:35:01.874Z,1007.09
2017-11-15T02:36:01.899Z,1007.13
2017-11-15T02:37:01.923Z,1007.11
2017-11-15T02:38:01.950Z,1007.07
2017-11-15T02:39:01.976Z,1007.07
2017-11-15T02:40:01.998Z,1007.09
2017-11-15T02:41:02.020Z,1007.08
2017-11-15T02:42:02.053Z,1007.10
2017-11-15T02:43:02.068Z,1007.12
2017-11-15T02:44:02.096Z,1007.07
2017-11-15T02:45:02.121Z,1007.01
2017-11-15T02:46:02.145Z,1007.05
2017-11-15T02:47:02.169Z,1007.02
2017-11-15T02:48:02.194Z,1007.05
2017-11-15T02:49:02.223Z,1007.08
2017-11-15T02:50:02.244Z,1007.03
2017-11-15T02:51:02.271Z,1007.04
2017-11-15T02:52:02.291Z,1007.08
2017-11-15T02:53:02.317Z,1007.07
2017-11-15T02:54:02.341Z,1007.05
2017-11-15T02:55:02.365Z,1007.05
2017-11-15T02:56:02.394Z,1007.05
2017-11-15T02:57:02.415Z,1007.02
2017-11-15T02:58:02.441Z,1007.03
2017-11-15T02:59:02.466Z,1007.05
2017-11-15T03:00:02.489Z,1007.04
2017-11-15T03:01:02.523Z,1007.06
2017-11-15T03:02:02.539Z,1007.05
2017-11-15T03:03:02.562Z,1007.06
2017-11-15T03:04:02.588Z,1007.07
2017-11-15T03:05:02.616Z,1007.08
2017-11-15T03:06:02.637Z,1007.06
2017-11-15T03:07:02.661Z,1007.04
2017-11-15T03:08:02.686Z,1007.11
2017-11-15T03:09:02.709Z,1007.03
2017-11-15T03:10:02.735Z,1007.01
2017-11-15T03:11:02.759Z,1007.04
2017-11-15T03:12:02.784Z,1007.02
2017-11-15T03:13:02.809Z,1007.04
2017-11-15T03:14:02.833Z,1007.03
2017-11-15T03:15:02.858Z,1007.00
2017-11-15T03:16:02.882Z,1007.00
2017-11-15T03:17:02.916Z,1006.98
2017-11-15T03:18:02.931Z,1006.98
2017-11-15T03:19:02.955Z,1007.01
2017-11-15T03:20:02.980Z,1007.00
2017-11-15T03:21:03.004Z,1007.07
2017-11-15T03:22:03.029Z,1007.01
2017-11-15T03:23:03.053Z,1007.07
2017-11-15T03:24:03.077Z,1007.07
2017-11-15T03:25:03.104Z,1007.10
2017-11-15T03:26:03.128Z,1007.05
2017-11-15T03:27:03.151Z,1007.08
2017-11-15T03:28:03.176Z,1007.06
2017-11-15T03:29:03.199Z,1007.06
2017-11-15T03:30:03.227Z,1007.09
2017-11-15T03:31:03.251Z,1007.10
2017-11-15T03:32:03.274Z,1007.08
2017-11-15T03:33:03.299Z,1007.10
2017-11-15T03:34:03.324Z,1007.08
2017-11-15T03:35:03.347Z,1007.04
2017-11-15T03:36:03.372Z,1007.14
2017-11-15T03:37:03.396Z,1007.06
2017-11-15T03:38:03.421Z,1007.07
2017-11-15T03:39:03.446Z,1007.07
2017-11-15T03:40:03.470Z,1007.05
2017-11-15T03:41:03.495Z,1007.02
2017-11-15T03:42:03.518Z,1007.01
2017-11-15T03:43:03.543Z,1007.05
2017-11-15T03:44:03.567Z,1007.01
2017-11-15T03:45:03.592Z,1006.97
2017-11-15T03:46:03.621Z,1007.03
2017-11-15T03:47:03.640Z,1007.02
2017-11-15T03:48:03.664Z,1007.04
2017-11-15T03:49:03.690Z,1006.98
2017-11-15T03:50:03.715Z,1006.98
2017-11-15T03:51:03.738Z,1006.90
2017-11-15T03:52:03.813Z,1006.95
2017-11-15T03:53:03.788Z,1006.96
2017-11-15T03:54:03.811Z,1006.93
2017-11-15T03:55:03.836Z,1006.93
2017-11-15T03:56:03.860Z,1006.94
2017-11-15T03:57:03.886Z,1006.93
2017-11-15T03:58:03.911Z,1006.91
2017-11-15T03:59:03.934Z,1006.93
2017-11-15T04:00:03.959Z,1006.89
2017-11-15T04:01:03.983Z,1006.91
2017-11-15T04:02:04.009Z,1006.89
2017-11-15T04:03:04.031Z,1006.92
2017-11-15T04:04:04.057Z,1006.92
2017-11-15T04:05:04.081Z,1006.85
2017-11-15T04:06:04.113Z,1006.89
2017-11-15T04:07:04.128Z,1006.95
2017-11-15T04:08:04.154Z,1006.89
2017-11-15T04:09:04.178Z,1006.87
2017-11-15T04:10:04.203Z,1006.86
2017-11-15T04:11:04.236Z,1006.91
2017-11-15T04:12:04.254Z,1006.88
2017-11-15T04:13:04.277Z,1006.89
2017-11-15T04:14:04.300Z,1006.92
2017-11-15T04:15:04.324Z,1006.88
2017-11-15T04:16:04.348Z,1006.90
2017-11-15T04:17:04.374Z,1006.91
2017-11-15T04:18:04.398Z,1006.87
2017-11-15T04:19:04.422Z,1006.89
2017-11-15T04:20:04.460Z,1006.89
2017-11-15T04:21:04.470Z,1006.90
2017-11-15T04:22:04.495Z,1006.87
2017-11-15T04:23:04.568Z,1006.88
2017-11-15T04:24:04.553Z,1006.91
2017-11-15T04:25:04.568Z,1006.89
2017-11-15T04:26:04.591Z,1006.82
2017-11-15T04:27:04.616Z,1006.84
2017-11-15T04:28:04.640Z,1006.80
2017-11-15T04:29:04.665Z,1006.85
2017-11-15T04:30:04.692Z,1006.89
2017-11-15T04:31:04.717Z,1006.85
2017-11-15T04:32:04.738Z,1006.89
2017-11-15T04:33:04.763Z,1006.87
2017-11-15T04:34:04.788Z,1006.86
2017-11-15T04:35:04.811Z,1006.84
2017-11-15T04:36:04.836Z,1006.86
2017-11-15T04:37:04.860Z,1006.88
2017-11-15T04:38:04.885Z,1006.85
2017-11-15T04:39:04.908Z,1006.83
2017-11-15T04:40:04.932Z,1006.84
2017-11-15T04:41:04.958Z,1006.79
2017-11-15T04:42:04.983Z,1006.81
2017-11-15T04:43:05.006Z,1006.81
2017-11-15T04:44:05.031Z,1006.80
2017-11-15T04:45:05.058Z,1006.75
2017-11-15T04:46:05.079Z,1006.80
2017-11-15T04:47:05.104Z,1006.79
2017-11-15T04:48:05.129Z,1006.79
2017-11-15T04:49:05.153Z,1006.75
2017-11-15T04:50:05.178Z,1006.77
2017-11-15T04:51:05.210Z,1006.79
2017-11-15T04:52:05.229Z,1006.76
2017-11-15T04:53:05.251Z,1006.80
2017-11-15T04:54:05.279Z,1006.76
2017-11-15T04:55:05.300Z,1006.76
2017-11-15T04:56:05.330Z,1006.78
2017-11-15T04:57:05.347Z,1006.77
2017-11-15T04:58:05.372Z,1006.77
2017-11-15T04:59:05.445Z,1006.79
2017-11-15T05:00:05.420Z,1006.78
2017-11-15T05:01:05.445Z,1006.82
2017-11-15T05:02:05.470Z,1006.83
2017-11-15T05:03:05.494Z,1006.82
2017-11-15T05:04:05.517Z,1006.81
2017-11-15T05:05:05.540Z,1006.82
2017-11-15T05:06:05.566Z,1006.78
2017-11-15T05:07:05.589Z,1006.77
2017-11-15T05:08:05.617Z,1006.80
2017-11-15T05:09:05.688Z,1006.80
2017-11-15T05:10:05.667Z,1006.84
2017-11-15T05:11:05.686Z,1006.80
2017-11-15T05:12:05.712Z,1006.81
2017-11-15T05:13:05.737Z,1006.84
2017-11-15T05:14:05.764Z,1006.81
2017-11-15T05:15:05.785Z,1006.85
2017-11-15T05:16:05.808Z,1006.79
2017-11-15T05:17:05.833Z,1006.80
2017-11-15T05:18:05.857Z,1006.81
2017-11-15T05:19:05.881Z,1006.80
2017-11-15T05:20:05.905Z,1006.89
2017-11-15T05:21:05.929Z,1006.86
2017-11-15T05:22:05.954Z,1006.87
2017-11-15T05:23:05.979Z,1006.97
2017-11-15T05:24:06.003Z,1006.98
2017-11-15T05:25:06.027Z,1006.97
2017-11-15T05:26:06.051Z,1007.00
2017-11-15T05:27:06.073Z,1007.00
2017-11-15T05:28:06.099Z,1007.03
2017-11-15T05:29:06.123Z,1007.02
2017-11-15T05:30:06.148Z,1007.04
2017-11-15T05:31:06.172Z,1007.04
2017-11-15T05:32:06.198Z,1007.00
2017-11-15T05:33:06.220Z,1006.96
2017-11-15T05:34:06.246Z,1006.96
2017-11-15T05:35:06.269Z,1006.95
2017-11-15T05:36:06.301Z,1006.91
2017-11-15T05:37:06.318Z,1006.97
2017-11-15T05:38:06.342Z,1006.94
2017-11-15T05:39:06.366Z,1006.98
2017-11-15T05:40:06.391Z,1007.00
2017-11-15T05:41:06.415Z,1006.96
2017-11-15T05:42:06.439Z,1006.92
2017-11-15T05:43:06.468Z,1006.96
2017-11-15T05:44:06.492Z,1006.99
2017-11-15T05:45:06.512Z,1007.00
2017-11-15T05:46:06.535Z,1006.99
2017-11-15T05:47:06.561Z,1007.01
2017-11-15T05:48:06.584Z,1007.05
2017-11-15T05:49:06.610Z,1007.05
2017-11-15T05:50:06.633Z,1007.06
2017-11-15T05:51:06.657Z,1007.05
2017-11-15T05:52:06.686Z,1007.11
2017-11-15T05:53:06.706Z,1007.06
2017-11-15T05:54:06.731Z,1007.01
2017-11-15T05:55:06.773Z,1007.11
2017-11-15T05:56:06.778Z,1007.08
2017-11-15T05:57:06.803Z,1007.10
2017-11-15T05:58:06.828Z,1007.10
2017-11-15T05:59:06.851Z,1007.10
2017-11-15T06:00:06.877Z,1007.11
2017-11-15T06:01:06.900Z,1007.10
2017-11-15T06:02:06.924Z,1007.10
2017-11-15T06:03:06.948Z,1007.13
2017-11-15T06:04:06.971Z,1007.09
2017-11-15T06:05:06.997Z,1007.11
2017-11-15T06:06:07.021Z,1007.13
2017-11-15T06:07:07.045Z,1007.12
2017-11-15T06:08:07.067Z,1007.15
2017-11-15T06:09:07.101Z,1007.17
2017-11-15T06:10:07.129Z,1007.18
2017-11-15T06:11:07.222Z,1007.16
2017-11-15T06:12:07.166Z,1007.23
2017-11-15T06:13:07.288Z,1007.24
2017-11-15T06:14:07.283Z,1007.26
2017-11-15T06:15:07.237Z,1007.34
2017-11-15T06:16:07.377Z,1007.32
2017-11-15T06:17:07.398Z,1007.35
2017-11-15T06:18:07.386Z,1007.39
2017-11-15T06:19:07.430Z,1007.40
2017-11-15T06:20:07.421Z,1007.42
2017-11-15T06:21:07.403Z,1007.39
2017-11-15T06:22:07.491Z,1007.40
2017-11-15T06:23:07.453Z,1007.39
2017-11-15T06:24:07.529Z,1007.44
2017-11-15T06:25:07.590Z,1007.44
2017-11-15T06:26:07.625Z,1007.48
2017-11-15T06:27:07.534Z,1007.45
2017-11-15T06:28:07.623Z,1007.47
2017-11-15T06:29:07.668Z,1007.41
2017-11-15T06:30:07.700Z,1007.48
2017-11-15T06:31:07.719Z,1007.49
2017-11-15T06:32:07.835Z,1007.50
2017-11-15T06:33:07.753Z,1007.45
2017-11-15T06:34:07.743Z,1007.52
2017-11-15T06:35:07.821Z,1007.55
2017-11-15T06:36:07.843Z,1007.52
2017-11-15T06:37:07.772Z,1007.50
2017-11-15T06:38:07.886Z,1007.57
2017-11-15T06:39:07.828Z,1007.57
2017-11-15T06:40:07.845Z,1007.55
2017-11-15T06:41:07.876Z,1007.53
2017-11-15T06:42:07.894Z,1007.53
2017-11-15T06:43:07.918Z,1007.58
2017-11-15T06:44:07.943Z,1007.53
2017-11-15T06:45:07.967Z,1007.52
2017-11-15T06:46:07.994Z,1007.49
2017-11-15T06:47:08.016Z,1007.51
2017-11-15T06:48:08.040Z,1007.46
2017-11-15T06:49:08.066Z,1007.48
2017-11-15T06:50:08.092Z,1007.51
2017-11-15T06:51:08.113Z,1007.60
2017-11-15T06:52:08.139Z,1007.57
2017-11-15T06:53:08.165Z,1007.55
2017-11-15T06:54:08.189Z,1007.65
2017-11-15T06:55:08.214Z,1007.60
2017-11-15T06:56:08.238Z,1007.64
2017-11-15T06:57:08.263Z,1007.69
2017-11-15T06:58:08.287Z,1007.66
2017-11-15T06:59:08.310Z,1007.63
2017-11-15T07:00:08.337Z,1007.62
2017-11-15T07:01:08.361Z,1007.69
2017-11-15T07:02:08.390Z,1007.66
2017-11-15T07:03:08.409Z,1007.66
2017-11-15T07:04:08.436Z,1007.66
2017-11-15T07:05:08.458Z,1007.60
2017-11-15T07:06:08.484Z,1007.67
2017-11-15T07:07:08.509Z,1007.62
2017-11-15T07:08:08.532Z,1007.63
2017-11-15T07:09:08.565Z,1007.56
2017-11-15T07:10:08.585Z,1007.57
2017-11-15T07:11:08.607Z,1007.53
2017-11-15T07:12:08.641Z,1007.58
2017-11-15T07:13:08.657Z,1007.63
2017-11-15T07:14:08.682Z,1007.64
2017-11-15T07:15:08.707Z,1007.57
2017-11-15T07:16:08.732Z,1007.63
2017-11-15T07:17:08.757Z,1007.58
2017-11-15T07:18:08.784Z,1007.54
2017-11-15T07:19:08.822Z,1007.58
2017-11-15T07:20:08.857Z,1007.62
2017-11-15T07:21:08.857Z,1007.66
2017-11-15T07:22:08.899Z,1007.64
2017-11-15T07:23:08.924Z,1007.67
2017-11-15T07:24:08.932Z,1007.68
2017-11-15T07:25:08.958Z,1007.71
2017-11-15T07:26:08.982Z,1007.72
2017-11-15T07:27:09.007Z,1007.76
2017-11-15T07:28:09.049Z,1007.78
2017-11-15T07:29:09.057Z,1007.76
2017-11-15T07:30:09.083Z,1007.81
2017-11-15T07:31:09.107Z,1007.76
2017-11-15T07:32:09.133Z,1007.68
2017-11-15T07:33:09.164Z,1007.76
2017-11-15T07:34:09.195Z,1007.78
2017-11-15T07:35:09.208Z,1007.78
2017-11-15T07:36:09.235Z,1007.76
2017-11-15T07:37:09.271Z,1007.86
2017-11-15T07:38:09.287Z,1007.85
2017-11-15T07:39:09.312Z,1007.84
2017-11-15T07:40:09.338Z,1007.86
2017-11-15T07:41:09.364Z,1007.90
2017-11-15T07:42:09.391Z,1007.89
2017-11-15T07:43:09.416Z,1007.95
2017-11-15T07:44:09.441Z,1007.95
2017-11-15T07:45:09.469Z,1007.92
2017-11-15T07:46:09.494Z,1007.92
2017-11-15T07:47:09.520Z,1007.91
2017-11-15T07:48:09.547Z,1007.94
2017-11-15T07:49:09.574Z,1007.95
2017-11-15T07:50:09.599Z,1007.90
2017-11-15T07:51:09.625Z,1007.87
2017-11-15T07:52:09.653Z,1007.90
2017-11-15T07:53:09.680Z,1007.91
2017-11-15T07:54:09.705Z,1007.96
2017-11-15T07:55:09.728Z,1007.92
2017-11-15T07:56:09.757Z,1007.94
2017-11-15T07:57:09.784Z,1007.96
2017-11-15T07:58:09.812Z,1007.97
2017-11-15T07:59:09.850Z,1007.95
2017-11-15T08:00:09.863Z,1007.90
2017-11-15T08:01:09.889Z,1007.96
2017-11-15T08:02:09.924Z,1007.99
2017-11-15T08:03:09.942Z,1007.95
2017-11-15T08:04:09.968Z,1007.93
2017-11-15T08:05:09.996Z,1007.93
2017-11-15T08:06:10.022Z,1007.95
2017-11-15T08:07:10.047Z,1007.96
2017-11-15T08:08:10.074Z,1007.96
2017-11-15T08:09:10.101Z,1007.90
2017-11-15T08:10:10.128Z,1007.87
2017-11-15T08:11:10.153Z,1007.93
2017-11-15T08:12:10.181Z,1007.89
2017-11-15T08:13:10.207Z,1007.91
2017-11-15T08:14:10.233Z,1007.94
2017-11-15T08:15:10.459Z,1007.98
2017-11-15T08:16:10.285Z,1007.91
2017-11-15T08:17:10.312Z,1007.92
2017-11-15T08:18:10.339Z,1007.97
2017-11-15T08:19:10.365Z,1007.95
2017-11-15T08:20:10.392Z,1007.93
2017-11-15T08:21:10.417Z,1008.01
2017-11-15T08:22:10.444Z,1008.01
2017-11-15T08:23:10.471Z,1007.99
2017-11-15T08:24:10.498Z,1007.93
2017-11-15T08:25:10.525Z,1007.99
2017-11-15T08:26:10.551Z,1008.00
2017-11-15T08:27:10.578Z,1007.89
2017-11-15T08:28:10.604Z,1007.92
2017-11-15T08:29:10.632Z,1007.93
2017-11-15T08:30:10.658Z,1007.92
2017-11-15T08:31:10.685Z,1007.92
2017-11-15T08:32:10.711Z,1007.89
2017-11-15T08:33:10.738Z,1007.90
2017-11-15T08:34:10.765Z,1007.95
2017-11-15T08:35:10.791Z,1007.87
2017-11-15T08:36:10.819Z,1007.91
2017-11-15T08:37:10.846Z,1007.92
2017-11-15T08:38:10.877Z,1007.95
2017-11-15T08:39:10.899Z,1007.95
2017-11-15T08:40:10.927Z,1007.96
2017-11-15T08:41:10.955Z,1008.05
2017-11-15T08:42:10.992Z,1007.97
2017-11-15T08:43:11.009Z,1007.96
2017-11-15T08:44:11.036Z,1007.87
2017-11-15T08:45:11.065Z,1007.92
2017-11-15T08:46:11.143Z,1007.91
2017-11-15T08:47:11.130Z,1007.94
2017-11-15T08:48:11.146Z,1007.94
2017-11-15T08:49:11.173Z,1007.95
2017-11-15T08:50:11.202Z,1008.09
2017-11-15T08:51:11.279Z,1008.03
2017-11-15T08:52:11.270Z,1008.11
2017-11-15T08:53:11.285Z,1008.10
2017-11-15T08:54:11.315Z,1008.03
2017-11-15T08:55:11.342Z,1008.02
2017-11-15T08:56:11.369Z,1008.05
2017-11-15T08:57:11.398Z,1008.16
2017-11-15T08:58:11.427Z,1008.09
2017-11-15T08:59:11.454Z,1007.98
2017-11-15T09:00:11.483Z,1008.05
2017-11-15T09:01:11.512Z,1008.00
2017-11-15T09:02:11.541Z,1008.05
2017-11-15T09:03:11.567Z,1008.04
2017-11-15T09:04:11.597Z,1008.14
2017-11-15T09:05:11.626Z,1008.41
2017-11-15T09:06:11.656Z,1008.34
2017-11-15T09:07:11.684Z,1008.23
2017-11-15T09:08:11.713Z,1008.27
2017-11-15T09:09:11.743Z,1008.13
2017-11-15T09:10:11.773Z,1008.19
2017-11-15T09:11:11.801Z,1008.07
2017-11-15T09:12:11.831Z,1008.18
2017-11-15T09:13:11.861Z,1008.07
2017-11-15T09:14:11.892Z,1008.23
2017-11-15T09:15:11.923Z,1008.24
2017-11-15T09:16:11.951Z,1008.27
2017-11-15T09:17:11.981Z,1008.15
2017-11-15T09:18:12.013Z,1008.04
2017-11-15T09:19:12.043Z,1007.95
2017-11-15T09:20:12.077Z,1007.95
2017-11-15T09:21:12.106Z,1008.22
2017-11-15T09:22:12.136Z,1008.09
2017-11-15T09:23:12.166Z,1008.09
2017-11-15T09:24:12.198Z,1008.18
2017-11-15T09:25:12.229Z,1008.15
2017-11-15T09:26:12.262Z,1008.12
2017-11-15T09:27:12.293Z,1008.07
2017-11-15T09:28:12.325Z,1008.02
2017-11-15T09:29:12.355Z,1008.16
2017-11-15T09:30:12.392Z,1008.05
2017-11-15T09:31:12.423Z,1008.09
2017-11-15T09:32:12.451Z,1008.23
2017-11-15T09:33:12.482Z,1008.19
2017-11-15T09:34:12.516Z,1008.40
2017-11-15T09:35:12.547Z,1008.32
2017-11-15T09:36:12.593Z,1008.47
2017-11-15T09:37:12.612Z,1008.44
2017-11-15T09:38:12.646Z,1008.50
2017-11-15T09:39:12.678Z,1008.40
2017-11-15T09:40:12.712Z,1008.48
2017-11-15T09:41:12.746Z,1008.37
2017-11-15T09:42:12.780Z,1008.51
2017-11-15T09:43:12.815Z,1008.41
2017-11-15T09:44:12.848Z,1008.37
2017-11-15T09:45:12.886Z,1008.12
2017-11-15T09:46:12.921Z,1008.31
2017-11-15T09:47:12.957Z,1008.29
2017-11-15T09:48:12.990Z,1007.91
2017-11-15T09:49:13.029Z,1008.02
2017-11-15T09:50:13.065Z,1008.02
2017-11-15T09:51:13.101Z,1008.09
2017-11-15T09:52:13.139Z,1008.27
2017-11-15T09:53:13.175Z,1008.48
2017-11-15T09:54:13.211Z,1008.27
2017-11-15T09:55:13.247Z,1007.79
2017-11-15T09:56:13.285Z,1008.15
2017-11-15T09:57:13.322Z,1007.85
2017-11-15T09:58:13.359Z,1007.95
2017-11-15T09:59:13.395Z,1008.13
2017-11-15T10:00:13.434Z,1007.81
2017-11-15T10:01:13.470Z,1007.77
2017-11-15T10:02:13.509Z,1007.97
2017-11-15T10:03:13.543Z,1008.15
2017-11-15T10:04:13.578Z,1008.19
2017-11-15T10:05:13.616Z,1008.24
2017-11-15T10:06:13.653Z,1008.38
2017-11-15T10:07:13.689Z,1008.52
2017-11-15T10:08:13.727Z,1008.19
2017-11-15T10:09:13.769Z,1008.14
2017-11-15T10:10:13.801Z,1008.42
2017-11-15T10:11:13.837Z,1008.25
2017-11-15T10:12:13.875Z,1007.98
2017-11-15T10:13:13.912Z,1008.31
2017-11-15T10:14:13.951Z,1008.20
2017-11-15T10:15:13.987Z,1008.51
2017-11-15T10:16:14.024Z,1008.51
2017-11-15T10:17:14.064Z,1008.28
2017-11-15T10:18:14.102Z,1007.91
2017-11-15T10:19:14.140Z,1008.34
2017-11-15T10:20:14.179Z,1008.25
2017-11-15T10:21:14.219Z,1008.19
2017-11-15T10:22:14.257Z,1008.42
2017-11-15T10:23:14.296Z,1008.49
2017-11-15T10:24:14.336Z,1008.50
2017-11-15T10:25:14.376Z,1008.46
2017-11-15T10:26:14.417Z,1008.46
2017-11-15T10:27:14.457Z,1008.41
2017-11-15T10:28:14.496Z,1008.47
2017-11-15T10:29:14.541Z,1008.45
2017-11-15T10:30:14.577Z,1008.42
2017-11-15T10:31:14.617Z,1008.31
2017-11-15T10:32:14.658Z,1008.53
2017-11-15T10:33:14.699Z,1008.52
2017-11-15T10:34:14.741Z,1008.42
2017-11-15T10:35:14.781Z,1008.31
2017-11-15T10:36:14.822Z,1008.24
2017-11-15T10:37:14.863Z,1008.15
2017-11-15T10:38:14.905Z,1008.48
2017-11-15T10:39:14.946Z,1008.35
2017-11-15T10:40:14.988Z,1008.40
2017-11-15T10:41:15.030Z,1008.16
2017-11-15T10:42:15.071Z,1008.19
2017-11-15T10:43:15.116Z,1008.26
2017-11-15T10:44:15.205Z,1008.26
2017-11-15T10:45:15.197Z,1008.30
2017-11-15T10:46:15.240Z,1008.34
2017-11-15T10:47:15.282Z,1008.12
2017-11-15T10:48:15.325Z,1008.24
2017-11-15T10:49:15.417Z,1008.17
2017-11-15T10:50:15.415Z,1008.29
2017-11-15T10:51:15.453Z,1008.09
2017-11-15T10:52:15.494Z,1008.14
2017-11-15T10:53:15.538Z,1007.91
2017-11-15T10:54:15.584Z,1007.69
2017-11-15T10:55:15.623Z,1007.73
2017-11-15T10:56:15.666Z,1007.94
2017-11-15T10:57:15.709Z,1008.10
2017-11-15T10:58:15.752Z,1007.73
2017-11-15T10:59:15.794Z,1007.66
2017-11-15T11:00:15.836Z,1008.11
2017-11-15T11:01:15.879Z,1007.97
2017-11-15T11:02:15.922Z,1008.26
2017-11-15T11:03:15.963Z,1007.44
2017-11-15T11:04:16.005Z,1007.80
2017-11-15T11:05:16.048Z,1007.17
2017-11-15T11:06:16.089Z,1007.40
2017-11-15T11:07:16.131Z,1007.50
2017-11-15T11:08:16.173Z,1007.28
2017-11-15T11:09:16.215Z,1006.97
2017-11-15T11:10:16.256Z,1007.17
2017-11-15T11:11:16.295Z,1007.49
2017-11-15T11:12:16.337Z,1007.21
2017-11-15T11:13:16.378Z,1007.19
2017-11-15T11:14:16.419Z,1007.03
2017-11-15T11:15:16.456Z,1007.18
2017-11-15T11:16:16.498Z,1007.84
2017-11-15T11:17:16.539Z,1007.68
2017-11-15T11:18:16.578Z,1007.26
2017-11-15T11:19:16.616Z,1007.15
2017-11-15T11:20:16.657Z,1006.90
2017-11-15T11:21:16.696Z,1007.05
2017-11-15T11:22:16.735Z,1007.45
2017-11-15T11:23:16.772Z,1006.90
2017-11-15T11:24:16.812Z,1006.99
2017-11-15T11:25:16.856Z,1007.34
2017-11-15T11:26:16.894Z,1007.23
2017-11-15T11:27:16.928Z,1006.96
2017-11-15T11:28:16.966Z,1007.06
2017-11-15T11:29:17.002Z,1007.22
2017-11-15T11:30:17.045Z,1006.60
2017-11-15T11:31:17.079Z,1006.76
2017-11-15T11:32:17.116Z,1006.71
2017-11-15T11:33:17.160Z,1006.63
2017-11-15T11:34:17.189Z,1006.98
2017-11-15T11:35:17.231Z,1006.92
2017-11-15T11:36:17.278Z,1006.90
2017-11-15T11:37:17.300Z,1007.63
2017-11-15T11:38:17.335Z,1007.61
2017-11-15T11:39:17.371Z,1007.22
2017-11-15T11:40:17.417Z,1007.63
2017-11-15T11:41:17.445Z,1007.74
2017-11-15T11:42:17.480Z,1007.82
2017-11-15T11:43:17.516Z,1007.36
2017-11-15T11:44:17.552Z,1007.85
2017-11-15T11:45:17.588Z,1007.89
2017-11-15T11:46:17.630Z,1007.00
2017-11-15T11:47:17.660Z,1006.97
2017-11-15T11:48:17.699Z,1007.17
2017-11-15T11:49:17.735Z,1006.92
2017-11-15T11:50:17.773Z,1007.12
2017-11-15T11:51:17.809Z,1007.00
2017-11-15T11:52:17.846Z,1006.78
2017-11-15T11:53:17.884Z,1006.58
2017-11-15T11:54:17.921Z,1006.77
2017-11-15T11:55:17.956Z,1006.80
2017-11-15T11:56:17.994Z,1006.57
2017-11-15T11:57:18.030Z,1006.72
2017-11-15T11:58:18.068Z,1006.67
2017-11-15T11:59:18.102Z,1006.66
2017-11-15T12:00:18.139Z,1006.60
2017-11-15T12:01:18.182Z,1006.65
2017-11-15T12:02:18.211Z,1006.73
2017-11-15T12:03:18.244Z,1006.70
2017-11-15T12:04:18.280Z,1007.37
2017-11-15T12:05:18.322Z,1006.77
2017-11-15T12:06:18.351Z,1006.61